Time;durP1;ratioP1;P1;durP2;ratioP2;P2;SDS_P1;SDS_P2;PMS_P1;PMS_P2;Temp;Humidity;BMP_temperature;BMP_pressure;BME280_temperature;BME280_humidity;BME280_pressure;Samples;Min_cycle;Max_cycle;Signal;HPM_P1;HPM_P2
2022/10/28 00:00:30;;;;;;;5.88;3.17;;;;;;;13.04;nan;101161.38;5089826;28;20042;-69
2022/10/28 00:02:59;;;;;;;4.65;3.22;;;;;;;13.02;nan;101163.38;5090720;28;20040;-69
2022/10/28 00:05:24;;;;;;;7.45;2.88;;;;;;;13.02;nan;101158.91;5091131;28;20122;-69
2022/10/28 00:07:49;;;;;;;6.25;3.13;;;;;;;13.03;nan;101159.72;5096989;28;20040;-69
2022/10/28 00:10:15;;;;;;;5.18;3.20;;;;;;;13.05;nan;101155.94;5085988;28;20137;-69
2022/10/28 00:12:40;;;;;;;4.85;3.00;;;;;;;13.09;nan;101162.63;5085372;28;20493;-69
2022/10/28 00:15:05;;;;;;;6.82;3.58;;;;;;;13.10;nan;101166.94;5084552;28;20055;-69
2022/10/28 00:17:31;;;;;;;5.18;2.92;;;;;;;13.13;nan;101169.31;5084696;28;20405;-69
2022/10/28 00:19:56;;;;;;;3.97;2.90;;;;;;;13.18;nan;101163.53;5066764;28;20135;-69
2022/10/28 00:22:21;;;;;;;5.93;3.25;;;;;;;13.25;nan;101161.06;5064845;28;20566;-70
2022/10/28 00:24:46;;;;;;;5.15;3.28;;;;;;;13.31;nan;101165.81;5061904;28;20036;-69
2022/10/28 00:27:12;;;;;;;8.15;4.18;;;;;;;13.36;nan;101164.34;5067180;28;20028;-69
2022/10/28 00:29:37;;;;;;;7.10;4.00;;;;;;;13.43;nan;101158.44;5084607;28;20403;-69
2022/10/28 00:32:02;;;;;;;6.80;4.10;;;;;;;13.43;nan;101150.47;5085509;28;20028;-68
2022/10/28 00:34:28;;;;;;;5.95;3.50;;;;;;;13.44;nan;101160.09;5084759;28;20401;-69
2022/10/28 00:36:53;;;;;;;5.63;3.20;;;;;;;13.61;nan;101159.25;5082537;28;20413;-69
2022/10/28 00:39:19;;;;;;;;;;;;;;;13.50;nan;101170.94;5084174;28;20032;-69
2022/10/28 00:41:53;;;;;;;6.25;3.95;;;;;;;13.47;nan;101178.41;5084331;28;19927;-69
2022/10/28 00:44:39;;;;;;;6.07;3.30;;;;;;;13.45;nan;101183.03;5075324;28;20105;-69
2022/10/28 00:47:28;;;;;;;8.27;4.10;;;;;;;13.44;nan;101178.69;5090092;28;20032;-69
2022/10/28 00:49:58;;;;;;;8.35;3.85;;;;;;;13.47;nan;101176.56;5058705;28;20040;-69
2022/10/28 00:52:28;;;;;;;8.13;3.83;;;;;;;13.52;nan;101179.59;5070961;28;20111;-69
2022/10/28 00:54:56;;;;;;;7.93;3.88;;;;;;;13.58;nan;101180.78;5089126;28;20123;-69
2022/10/28 00:57:24;;;;;;;6.75;3.80;;;;;;;13.66;nan;101180.00;5089105;28;20040;-69
2022/10/28 00:59:52;;;;;;;8.70;3.80;;;;;;;13.73;nan;101175.72;5071580;28;20081;-69
2022/10/28 01:02:18;;;;;;;5.20;3.40;;;;;;;13.78;nan;101173.47;5087582;28;20028;-69
2022/10/28 01:04:45;;;;;;;5.75;3.40;;;;;;;13.83;nan;101159.69;5092044;28;20066;-68
2022/10/28 01:07:10;;;;;;;4.70;3.15;;;;;;;13.85;nan;101157.69;5092244;28;20551;-69
2022/10/28 01:09:38;;;;;;;6.63;3.63;;;;;;;13.89;nan;101148.41;5087500;28;20051;-69
2022/10/28 01:12:27;;;;;;;4.47;2.70;;;;;;;13.90;nan;101152.75;5088731;28;20037;-69
2022/10/28 01:15:21;;;;;;;4.25;2.50;;;;;;;14.05;nan;101156.47;5088519;28;20475;-69
2022/10/28 01:18:03;;;;;;;6.82;3.25;;;;;;;13.99;nan;101150.00;5084474;28;20055;-69
2022/10/28 01:20:31;;;;;;;7.78;3.53;;;;;;;14.02;nan;101148.84;5069504;28;20481;-69
2022/10/28 01:23:05;;;;;;;5.70;3.17;;;;;;;14.03;nan;101147.81;5089592;28;20048;-69
2022/10/28 01:26:01;;;;;;;5.95;2.90;;;;;;;14.02;nan;101149.66;5088681;28;20048;-69
2022/10/28 01:28:50;;;;;;;5.60;3.13;;;;;;;14.02;nan;101151.50;5088523;28;20032;-69
2022/10/28 01:31:46;;;;;;;5.82;3.25;;;;;;;14.03;nan;101153.16;5079120;28;20044;-69
2022/10/28 01:34:11;;;;;;;;;;;;;;;14.03;nan;101145.16;5082468;28;20032;-69
2022/10/28 01:36:59;;;;;;;6.70;2.80;;;;;;;14.08;nan;101137.53;5087341;28;19916;-69
2022/10/28 01:40:03;;;;;;;4.90;2.78;;;;;;;14.15;nan;101135.91;5070191;28;20036;-69
2022/10/28 01:43:15;;;;;;;5.90;3.10;;;;;;;14.22;nan;101139.59;5084177;28;20554;-69
2022/10/28 01:45:49;;;;;;;4.10;2.50;;;;;;;14.28;nan;101146.13;5084089;28;20130;-69
2022/10/28 01:48:20;;;;;;;5.90;3.20;;;;;;;14.31;nan;101144.97;5087233;28;20472;-69
2022/10/28 01:50:55;;;;;;;5.82;2.83;;;;;;;14.34;nan;101149.94;5084693;28;20066;-69
2022/10/28 01:53:27;;;;;;;6.22;3.10;;;;;;;14.39;nan;101148.47;5088670;28;20039;-69
2022/10/28 01:55:57;;;;;;;4.28;2.83;;;;;;;14.47;nan;101149.47;5087127;28;20051;-69
2022/10/28 01:58:26;;;;;;;6.95;3.40;;;;;;;14.54;nan;101156.72;5069226;28;20427;-69
2022/10/28 02:00:52;;;;;;;4.50;2.80;;;;;;;14.78;nan;101144.44;5087374;28;20392;-69
2022/10/28 02:03:18;;;;;;;4.85;2.50;;;;;;;14.78;nan;101139.13;5086255;28;20042;-69
2022/10/28 02:05:46;;;;;;;6.32;2.70;;;;;;;14.78;nan;101137.28;5094144;28;20048;-69
2022/10/28 02:08:17;;;;;;;5.15;2.70;;;;;;;14.83;nan;101132.31;5086507;28;20044;-69
2022/10/28 02:11:01;;;;;;;;;;;;;;;14.86;nan;101131.97;5069373;28;20032;-69
2022/10/28 02:13:53;;;;;;;6.30;3.10;;;;;;;14.91;nan;101126.16;5086355;28;19916;-69
2022/10/28 02:16:34;;;;;;;12.00;3.45;;;;;;;14.95;nan;101116.00;5074045;28;20028;-69
2022/10/28 02:19:15;;;;;;;6.65;3.00;;;;;;;14.98;nan;101105.00;5086397;28;20032;-69
2022/10/28 02:22:02;;;;;;;7.20;2.47;;;;;;;15.01;nan;101108.16;5093185;28;20039;-69
2022/10/28 02:24:36;;;;;;;;;;;;;;;14.97;nan;101098.88;5090658;28;20032;-69
2022/10/28 02:27:09;;;;;;;;;;;;;;;14.93;nan;101096.69;5086742;28;20335;-66
2022/10/28 02:29:38;;;;;;;;;;;;;;;14.86;nan;101093.84;5087809;28;19988;-66
2022/10/28 02:32:18;;;;;;;7.18;3.22;;;;;;;14.78;nan;101100.03;5072857;28;19916;-69
2022/10/28 02:34:47;;;;;;;8.07;3.58;;;;;;;14.72;nan;101106.00;5087899;28;20194;-69
2022/10/28 02:37:22;;;;;;;6.00;3.20;;;;;;;14.68;nan;101115.28;5086804;28;20088;-69
2022/10/28 02:39:51;;;;;;;5.38;2.75;;;;;;;14.63;nan;101115.81;5086815;28;20028;-69
2022/10/28 02:42:20;;;;;;;;;;;;;;;14.62;nan;101114.13;5067349;28;20044;-66
2022/10/28 02:44:50;;;;;;;6.30;3.13;;;;;;;14.67;nan;101110.16;5087562;28;19932;-69
2022/10/28 02:47:19;;;;;;;8.00;3.50;;;;;;;14.75;nan;101104.81;5086147;28;20044;-69
2022/10/28 02:49:52;;;;;;;5.30;2.63;;;;;;;14.82;nan;101104.00;5086854;28;20032;-69
2022/10/28 02:52:19;;;;;;;4.35;2.38;;;;;;;14.83;nan;101099.53;5083917;28;20100;-69
2022/10/28 02:54:55;;;;;;;5.85;2.92;;;;;;;14.87;nan;101100.84;5072363;28;20024;-69
2022/10/28 02:57:25;;;;;;;6.15;2.72;;;;;;;14.93;nan;101086.03;5087086;28;20127;-69
2022/10/28 02:59:52;;;;;;;6.43;2.88;;;;;;;14.99;nan;101083.56;5069887;28;20341;-69
2022/10/28 03:02:18;;;;;;;4.57;2.67;;;;;;;14.99;nan;101077.38;5084373;28;20381;-69
2022/10/28 03:04:43;;;;;;;6.27;3.00;;;;;;;14.98;nan;101081.88;5086457;28;20032;-69
2022/10/28 03:07:08;;;;;;;7.35;2.80;;;;;;;15.02;nan;101082.38;5086905;28;20898;-69
2022/10/28 03:09:33;;;;;;;7.33;2.90;;;;;;;15.20;nan;101082.19;5083534;28;20422;-69
2022/10/28 03:11:59;;;;;;;;;;;;;;;15.16;nan;101079.03;5084360;28;20331;-69
2022/10/28 03:14:24;;;;;;;;;;;;;;;15.16;nan;101078.19;5068873;28;19916;-69
2022/10/28 03:16:49;;;;;;;4.83;3.07;;;;;;;15.22;nan;101082.84;5067329;28;20006;-69
2022/10/28 03:19:14;;;;;;;8.75;3.40;;;;;;;15.29;nan;101075.84;5084377;28;20324;-69
2022/10/28 03:21:39;;;;;;;;;;;;;;;15.35;nan;101075.19;5091676;28;20031;-69
2022/10/28 03:24:05;;;;;;;;;;;;;;;15.50;nan;101064.66;5099405;28;19919;-69
2022/10/28 03:26:30;;;;;;;;;;;;;;;15.64;nan;101065.78;5067906;28;20646;-67
2022/10/28 03:28:55;;;;;;;;;;;;;;;15.82;nan;101063.72;5069228;28;20220;-67
2022/10/28 03:31:20;;;;;;;;;;;;;;;16.02;nan;101060.66;5088756;28;19938;-66
2022/10/28 03:33:45;;;;;;;;;;;;;;;16.11;nan;101044.44;5088187;28;19912;-66
2022/10/28 03:36:11;;;;;;;;;;;;;;;16.27;nan;101046.16;5088088;28;19916;-67
2022/10/28 03:38:36;;;;;;;7.97;3.23;;;;;;;16.41;nan;101051.75;5069714;28;19916;-69
2022/10/28 03:41:01;;;;;;;7.07;2.93;;;;;;;16.46;nan;101038.69;5069597;28;20158;-69
2022/10/28 03:43:27;;;;;;;6.07;2.80;;;;;;;16.65;nan;101034.72;5086364;28;20394;-69
2022/10/28 03:45:52;;;;;;;5.47;2.40;;;;;;;16.74;nan;101031.81;5086589;28;20493;-69
2022/10/28 03:48:17;;;;;;;;;;;;;;;16.67;nan;101022.84;5086972;28;20497;-67
2022/10/28 03:50:42;;;;;;;5.53;2.87;;;;;;;16.79;nan;101017.13;5087380;28;19920;-69
2022/10/28 03:53:08;;;;;;;6.95;2.97;;;;;;;17.01;nan;101018.09;5086349;28;20398;-69
2022/10/28 03:55:33;;;;;;;4.37;2.20;;;;;;;17.15;nan;101018.09;5086795;28;20425;-69
2022/10/28 03:58:01;;;;;;;7.03;2.60;;;;;;;17.27;nan;101031.00;5086230;28;21044;-69
2022/10/28 04:00:27;;;;;;;3.63;1.90;;;;;;;17.31;nan;101035.00;5067173;28;20470;-69
2022/10/28 04:02:53;;;;;;;4.50;1.90;;;;;;;17.31;nan;101027.78;5083531;28;20417;-69
2022/10/28 04:05:19;;;;;;;4.10;2.10;;;;;;;17.29;nan;101031.66;5085805;28;20441;-69
2022/10/28 04:07:44;;;;;;;5.97;2.30;;;;;;;17.33;nan;101031.13;5086790;28;20421;-69
2022/10/28 04:10:10;;;;;;;4.00;2.07;;;;;;;17.34;nan;101047.97;5067734;28;20448;-69
2022/10/28 04:12:35;;;;;;;3.40;1.48;;;;;;;17.29;nan;101055.72;5086477;28;20486;-69
2022/10/28 04:15:01;;;;;;;4.20;1.90;;;;;;;17.07;nan;101052.94;5082305;28;20028;-68
2022/10/28 04:17:26;;;;;;;;;;;;;;;16.95;nan;101054.38;5081769;28;20056;-68
2022/10/28 04:19:51;;;;;;;;;;;;;;;16.89;nan;101055.09;5090314;28;20340;-69
2022/10/28 04:22:16;;;;;;;;;;;;;;;16.85;nan;101056.44;5090424;28;19927;-68
2022/10/28 04:24:42;;;;;;;4.23;2.00;;;;;;;16.82;nan;101059.50;5109170;28;19969;-69
2022/10/28 04:27:07;;;;;;;4.18;2.33;;;;;;;16.76;nan;101069.84;5096090;28;20089;-68
2022/10/28 04:29:32;;;;;;;4.35;1.83;;;;;;;16.66;nan;101057.72;5089137;28;20051;-69
2022/10/28 04:31:58;;;;;;;4.15;1.90;;;;;;;16.60;nan;101066.47;5084789;28;20036;-69
2022/10/28 04:34:23;;;;;;;4.93;2.20;;;;;;;16.52;nan;101062.84;5089449;28;20123;-68
2022/10/28 04:36:49;;;;;;;4.80;2.23;;;;;;;16.61;nan;101055.59;5078978;28;21001;-69
2022/10/28 04:39:14;;;;;;;4.97;2.00;;;;;;;16.47;nan;101049.22;5086974;28;20051;-69
2022/10/28 04:41:39;;;;;;;5.05;2.20;;;;;;;16.37;nan;101053.09;5071446;28;20113;-68
2022/10/28 04:44:05;;;;;;;6.10;2.40;;;;;;;16.23;nan;101054.69;5088731;28;20047;-68
2022/10/28 04:46:30;;;;;;;3.23;1.80;;;;;;;16.14;nan;101053.94;5087871;28;20289;-68
2022/10/28 04:48:55;;;;;;;5.37;2.40;;;;;;;16.05;nan;101061.13;5086675;28;20324;-69
2022/10/28 04:51:20;;;;;;;5.63;2.72;;;;;;;15.94;nan;101061.50;5088216;28;20294;-68
2022/10/28 04:53:46;;;;;;;6.63;2.90;;;;;;;15.86;nan;101064.22;5083645;28;20541;-69
2022/10/28 04:56:11;;;;;;;6.50;2.95;;;;;;;15.72;nan;101076.44;5087713;28;20060;-69
2022/10/28 04:58:36;;;;;;;8.40;2.83;;;;;;;15.64;nan;101079.13;5072825;28;20134;-68
2022/10/28 05:01:06;;;;;;;6.20;2.92;;;;;;;15.61;nan;101074.09;5088504;28;20362;-68
2022/10/28 05:03:32;;;;;;;4.72;2.47;;;;;;;15.61;nan;101090.09;5086063;28;20036;-68
2022/10/28 05:05:57;;;;;;;5.63;2.70;;;;;;;15.57;nan;101080.81;5089855;28;20032;-68
2022/10/28 05:08:22;;;;;;;5.30;2.47;;;;;;;15.55;nan;101088.13;5089529;28;20043;-69
2022/10/28 05:10:49;;;;;;;;;;;;;;;15.48;nan;101091.47;5087006;28;20816;-69
2022/10/28 05:13:15;;;;;;;4.72;2.78;;;;;;;15.44;nan;101079.47;5084651;28;19915;-68
2022/10/28 05:15:40;;;;;;;;;;;;;;;15.38;nan;101082.84;5085130;28;20067;-69
2022/10/28 05:18:06;;;;;;;;;;;;;;;15.39;nan;101076.50;5086975;28;19916;-69
2022/10/28 05:20:31;;;;;;;;;;;;;;;15.36;nan;101078.69;5089769;28;20034;-68
2022/10/28 05:22:56;;;;;;;;;;;;;;;15.30;nan;101080.16;5102373;28;19928;-68
2022/10/28 05:25:21;;;;;;;;;;;;;;;15.28;nan;101076.88;5090775;28;20436;-68
2022/10/28 05:27:47;;;;;;;;;;;;;;;15.17;nan;101080.69;5072390;28;20157;-69
2022/10/28 05:30:13;;;;;;;7.15;3.80;;;;;;;15.11;nan;101084.06;5088891;28;19957;-69
2022/10/28 05:32:38;;;;;;;4.95;2.88;;;;;;;15.25;nan;101071.84;5088707;28;20390;-69
2022/10/28 05:35:04;;;;;;;6.22;3.00;;;;;;;15.17;nan;101078.03;5090350;28;20500;-69
2022/10/28 05:37:29;;;;;;;6.63;3.10;;;;;;;15.11;nan;101072.53;5087282;28;20381;-69
2022/10/28 05:39:55;;;;;;;;;;;;;;;15.00;nan;101076.38;5070442;28;20092;-68
2022/10/28 05:42:20;;;;;;;7.70;3.63;;;;;;;14.94;nan;101069.88;5079622;28;19922;-69
2022/10/28 05:44:45;;;;;;;;;;;;;;;14.88;nan;101080.38;5090838;28;20040;-69
2022/10/28 05:47:10;;;;;;;;;;;;;;;14.76;nan;101083.38;5091274;28;19935;-69
2022/10/28 05:49:35;;;;;;;6.93;3.30;;;;;;;14.67;nan;101079.03;5078780;28;19916;-68
2022/10/28 05:52:01;;;;;;;8.38;3.90;;;;;;;14.60;nan;101070.88;5075374;28;20028;-69
2022/10/28 05:54:26;;;;;;;8.55;4.50;;;;;;;14.57;nan;101057.91;5090476;28;20111;-69
2022/10/28 05:56:51;;;;;;;8.80;4.95;;;;;;;14.57;nan;101051.75;5090671;28;20054;-69
2022/10/28 05:59:17;;;;;;;11.15;5.03;;;;;;;14.62;nan;101046.75;5090142;28;20278;-68
2022/10/28 06:01:42;;;;;;;7.88;4.75;;;;;;;14.64;nan;101036.78;5084514;28;20390;-68
2022/10/28 06:04:07;;;;;;;7.80;4.10;;;;;;;14.72;nan;101042.09;5089171;28;20119;-69
2022/10/28 06:06:35;;;;;;;9.80;3.83;;;;;;;14.81;nan;101034.97;5095151;28;20327;-68
2022/10/28 06:09:00;;;;;;;;;;;;;;;14.92;nan;101037.28;5090672;28;20301;-68
2022/10/28 06:11:25;;;;;;;;;;;;;;;15.05;nan;101034.94;5090068;28;19915;-68
2022/10/28 06:13:50;;;;;;;11.13;3.20;;;;;;;15.27;nan;101027.22;5089933;28;19916;-68
2022/10/28 06:16:15;;;;;;;;;;;;;;;15.47;nan;101028.50;5089385;28;20056;-69
2022/10/28 06:18:41;;;;;;;9.57;3.17;;;;;;;15.61;nan;101018.13;5070968;28;20381;-68
2022/10/28 06:21:06;;;;;;;7.18;3.08;;;;;;;15.75;nan;101028.09;5072374;28;20040;-69
2022/10/28 06:23:31;;;;;;;7.85;3.20;;;;;;;15.81;nan;101024.75;5083570;28;20048;-69
2022/10/28 06:25:59;;;;;;;5.30;2.53;;;;;;;15.83;nan;101020.06;5069100;28;20274;-68
2022/10/28 06:28:24;;;;;;;4.75;2.53;;;;;;;15.86;nan;101033.03;5087056;28;20601;-69
2022/10/28 06:30:50;;;;;;;8.07;2.78;;;;;;;15.88;nan;101033.72;5089024;28;20036;-68
2022/10/28 06:33:15;;;;;;;4.72;2.22;;;;;;;15.89;nan;101037.19;5077406;28;20036;-69
2022/10/28 06:35:40;;;;;;;4.45;2.30;;;;;;;15.87;nan;101048.06;5061827;28;20198;-69
2022/10/28 06:38:05;;;;;;;6.73;2.10;;;;;;;15.86;nan;101053.56;5088855;28;20028;-69
2022/10/28 06:40:31;;;;;;;4.00;2.10;;;;;;;15.85;nan;101058.06;5088648;28;20267;-69
2022/10/28 06:42:58;;;;;;;5.60;2.42;;;;;;;15.84;nan;101061.72;5088865;28;20090;-69
2022/10/28 06:45:23;;;;;;;5.68;2.35;;;;;;;15.86;nan;101072.22;5089209;28;20439;-69
2022/10/28 06:47:48;;;;;;;2.72;1.90;;;;;;;15.88;nan;101075.56;5089076;28;20028;-69
2022/10/28 06:50:14;;;;;;;6.75;2.33;;;;;;;15.91;nan;101078.69;5089047;28;20109;-69
2022/10/28 06:52:39;;;;;;;7.70;2.80;;;;;;;15.93;nan;101078.53;5088710;28;20039;-69
2022/10/28 06:55:05;;;;;;;7.45;3.55;;;;;;;15.86;nan;101078.38;5089944;28;20039;-69
2022/10/28 06:57:30;;;;;;;9.43;3.75;;;;;;;15.84;nan;101077.72;5089265;28;20028;-69
2022/10/28 06:59:55;;;;;;;7.20;3.60;;;;;;;15.82;nan;101087.72;5088429;28;20109;-68
2022/10/28 07:02:20;;;;;;;6.70;3.85;;;;;;;15.83;nan;101097.41;5087690;28;20279;-69
2022/10/28 07:04:46;;;;;;;7.60;4.40;;;;;;;15.88;nan;101107.56;5090931;28;20431;-69
2022/10/28 07:07:11;;;;;;;8.97;4.87;;;;;;;15.92;nan;101106.19;5070971;28;20098;-68
2022/10/28 07:09:38;;;;;;;11.40;4.97;;;;;;;15.95;nan;101105.88;5069912;28;20860;-68
2022/10/28 07:12:05;;;;;;;9.88;5.18;;;;;;;15.97;nan;101108.34;5062373;28;20038;-69
2022/10/28 07:14:30;;;;;;;9.63;4.60;;;;;;;15.93;nan;101107.88;5080669;28;20096;-69
2022/10/28 07:16:56;;;;;;;10.60;4.30;;;;;;;15.90;nan;101109.06;5087656;28;20198;-69
2022/10/28 07:19:21;;;;;;;8.55;4.28;;;;;;;15.92;nan;101109.72;5074068;28;20051;-68
2022/10/28 07:21:46;;;;;;;8.27;3.97;;;;;;;15.93;nan;101107.88;5082459;28;20362;-69
2022/10/28 07:24:12;;;;;;;6.15;3.40;;;;;;;15.96;nan;101117.34;5067151;28;20067;-69
2022/10/28 07:26:37;;;;;;;8.67;3.80;;;;;;;16.01;nan;101121.16;5073600;28;20119;-69
2022/10/28 07:29:02;;;;;;;4.80;3.10;;;;;;;16.04;nan;101110.16;5088569;28;20625;-69
2022/10/28 07:31:30;;;;;;;8.32;3.33;;;;;;;16.10;nan;101113.97;5087555;28;20490;-69
2022/10/28 07:33:55;;;;;;;5.93;3.50;;;;;;;16.14;nan;101116.13;5068030;28;20447;-69
2022/10/28 07:36:20;;;;;;;5.43;3.10;;;;;;;16.20;nan;101113.75;5084933;28;20040;-69
2022/10/28 07:38:50;;;;;;;7.13;3.45;;;;;;;16.26;nan;101108.56;5088233;28;20039;-69
2022/10/28 07:41:16;;;;;;;7.28;3.10;;;;;;;16.32;nan;101117.69;5087561;28;20038;-69
2022/10/28 07:43:42;;;;;;;6.75;2.97;;;;;;;16.38;nan;101119.66;5069709;28;20036;-69
2022/10/28 07:46:07;;;;;;;4.72;3.15;;;;;;;16.41;nan;101115.81;5087231;28;20223;-69
2022/10/28 07:48:34;;;;;;;4.50;2.78;;;;;;;16.41;nan;101121.16;5085740;28;20043;-69
2022/10/28 07:51:01;;;;;;;5.88;3.83;;;;;;;16.38;nan;101126.84;5067705;28;20032;-69
2022/10/28 07:53:27;;;;;;;8.20;3.97;;;;;;;16.40;nan;101116.81;5057333;28;20119;-69
2022/10/28 07:55:56;;;;;;;6.72;3.22;;;;;;;16.44;nan;101112.78;5087741;28;20115;-69
2022/10/28 07:58:22;;;;;;;6.95;3.08;;;;;;;16.48;nan;101127.44;5087199;28;20420;-69
2022/10/28 08:00:47;;;;;;;6.78;2.60;;;;;;;16.59;nan;101118.19;5087642;28;20033;-69
2022/10/28 08:03:12;;;;;;;7.38;3.00;;;;;;;16.65;nan;101117.50;5086351;28;20047;-69
2022/10/28 08:05:38;;;;;;;7.13;2.60;;;;;;;16.76;nan;101120.59;5094240;28;20067;-69
2022/10/28 08:08:03;;;;;;;4.90;2.60;;;;;;;16.88;nan;101126.38;5087727;28;20515;-69
2022/10/28 08:10:28;;;;;;;5.28;2.60;;;;;;;16.97;nan;101135.16;5087304;28;20032;-69
2022/10/28 08:12:56;;;;;;;5.17;3.00;;;;;;;17.02;nan;101126.59;5086524;28;20020;-69
2022/10/28 08:15:22;;;;;;;6.25;2.95;;;;;;;17.07;nan;101129.59;5070093;28;20270;-69
2022/10/28 08:17:52;;;;;;;6.97;3.00;;;;;;;17.14;nan;101134.03;5088896;28;20118;-69
2022/10/28 08:20:17;;;;;;;6.40;2.70;;;;;;;17.19;nan;101131.66;5088845;28;20285;-69
2022/10/28 08:22:42;;;;;;;6.43;3.03;;;;;;;17.19;nan;101118.28;5102594;28;20193;-70
2022/10/28 08:25:08;;;;;;;5.87;3.23;;;;;;;17.17;nan;101125.66;5088762;28;20048;-68
2022/10/28 08:27:34;;;;;;;6.50;3.20;;;;;;;17.25;nan;101124.72;5069908;28;20277;-68
2022/10/28 08:29:59;;;;;;;6.77;3.33;;;;;;;17.32;nan;101124.84;5088643;28;20302;-68
2022/10/28 08:32:24;;;;;;;5.82;3.25;;;;;;;17.42;nan;101114.72;5087735;28;21428;-68
2022/10/28 08:34:49;;;;;;;6.80;3.08;;;;;;;17.59;nan;101112.69;5069582;28;20039;-68
2022/10/28 08:37:15;;;;;;;5.28;3.15;;;;;;;17.83;nan;101114.34;5087868;28;20520;-68
2022/10/28 08:39:40;;;;;;;4.45;2.35;;;;;;;18.08;nan;101120.19;5087471;28;20033;-68
2022/10/28 08:42:25;;;;;;;4.10;2.40;;;;;;;18.24;nan;101120.00;5086738;28;20516;-68
2022/10/28 08:45:07;;;;;;;3.85;2.25;;;;;;;18.36;nan;101120.34;5087529;28;20101;-67
2022/10/28 08:47:54;;;;;;;6.50;2.50;;;;;;;18.53;nan;101120.94;5069082;28;20119;-68
2022/10/28 08:50:23;;;;;;;5.40;2.30;;;;;;;18.75;nan;101119.09;5070823;28;20500;-68
2022/10/28 08:52:54;;;;;;;5.00;2.30;;;;;;;18.92;nan;101108.16;5085258;28;20052;-68
2022/10/28 08:55:29;;;;;;;4.65;2.30;;;;;;;19.33;nan;101108.31;5085933;28;20394;-68
2022/10/28 08:58:00;;;;;;;4.20;2.10;;;;;;;19.41;nan;101110.81;5053331;28;20040;-70
2022/10/28 09:00:28;;;;;;;5.50;2.80;;;;;;;19.53;nan;101113.78;5066232;28;20043;-68
2022/10/28 09:03:05;;;;;;;6.57;2.45;;;;;;;19.78;nan;101110.66;5066512;28;20063;-68
2022/10/28 09:05:31;;;;;;;6.90;2.80;;;;;;;20.13;nan;101109.59;5074837;28;20399;-67
2022/10/28 09:07:57;;;;;;;4.85;2.30;;;;;;;20.16;nan;101105.66;5070692;28;20028;-68
2022/10/28 09:10:47;;;;;;;5.35;2.25;;;;;;;20.25;nan;101100.97;5087829;28;20042;-68
2022/10/28 09:13:36;;;;;;;4.88;2.25;;;;;;;20.33;nan;101106.13;5072518;28;20028;-68
2022/10/28 09:16:17;;;;;;;3.85;2.05;;;;;;;20.33;nan;101115.06;5090837;28;20044;-68
2022/10/28 09:18:53;;;;;;;4.90;2.13;;;;;;;20.34;nan;101116.69;5090982;28;20091;-68
2022/10/28 09:21:35;;;;;;;6.25;2.28;;;;;;;20.44;nan;101110.09;5092087;28;20036;-68
2022/10/28 09:24:14;;;;;;;4.72;2.28;;;;;;;20.46;nan;101106.19;5094558;28;20048;-68
2022/10/28 09:27:18;;;;;;;5.07;1.88;;;;;;;20.47;nan;101110.53;5090502;28;20028;-68
2022/10/28 09:29:59;;;;;;;4.85;2.45;;;;;;;20.62;nan;101096.09;5079700;28;20104;-68
2022/10/28 09:32:34;;;;;;;4.05;2.00;;;;;;;20.77;nan;101102.16;5086877;28;20047;-68
2022/10/28 09:35:12;;;;;;;3.95;1.90;;;;;;;20.92;nan;101108.16;5069431;28;20075;-70
2022/10/28 09:37:44;;;;;;;3.35;1.85;;;;;;;20.97;nan;101107.53;5069665;28;20086;-68
2022/10/28 09:40:20;;;;;;;4.25;1.98;;;;;;;20.98;nan;101111.88;5072924;28;20036;-68
2022/10/28 09:43:09;;;;;;;4.20;2.00;;;;;;;20.91;nan;101117.25;5088609;28;20032;-68
2022/10/28 09:45:41;;;;;;;6.28;2.50;;;;;;;20.78;nan;101115.38;5051688;28;20456;-67
2022/10/28 09:48:40;;;;;;;7.40;2.55;;;;;;;20.62;nan;101117.59;5076644;28;20036;-70
2022/10/28 09:51:33;;;;;;;6.85;2.20;;;;;;;20.76;nan;101113.91;5035605;28;20045;-68
2022/10/28 09:54:00;;;;;;;5.30;2.30;;;;;;;21.13;nan;101120.56;5069241;28;20090;-67
2022/10/28 09:56:27;;;;;;;5.40;2.42;;;;;;;21.38;nan;101110.00;5068691;28;20044;-68
2022/10/28 09:58:56;;;;;;;5.60;2.47;;;;;;;21.68;nan;101117.63;5051275;28;20036;-68
2022/10/28 10:01:22;;;;;;;6.10;2.33;;;;;;;22.03;nan;101117.34;5068974;28;20401;-68
2022/10/28 10:03:49;;;;;;;8.50;2.97;;;;;;;22.30;nan;101115.38;5068818;28;20029;-68
2022/10/28 10:06:19;;;;;;;7.22;2.90;;;;;;;22.40;nan;101117.59;5091664;28;20050;-68
2022/10/28 10:08:46;;;;;;;6.55;3.47;;;;;;;22.42;nan;101124.41;5069264;28;20033;-68
2022/10/28 10:11:26;;;;;;;6.78;3.08;;;;;;;22.45;nan;101121.31;5069102;28;20048;-67
2022/10/28 10:13:53;;;;;;;8.00;3.70;;;;;;;22.51;nan;101118.78;5069090;28;20588;-67
2022/10/28 10:16:42;;;;;;;7.25;3.72;;;;;;;22.61;nan;101111.88;5067904;28;20426;-68
2022/10/28 10:19:09;;;;;;;7.45;3.65;;;;;;;22.73;nan;101114.69;5068783;28;20067;-68
2022/10/28 10:21:42;;;;;;;8.85;3.20;;;;;;;22.84;nan;101118.56;5078694;28;20412;-67
2022/10/28 10:24:31;;;;;;;10.13;3.42;;;;;;;22.82;nan;101112.56;5096139;28;20102;-68
2022/10/28 10:27:02;;;;;;;7.85;3.10;;;;;;;23.84;nan;101118.53;5089294;28;20037;-67
2022/10/28 10:29:28;;;;;;;;;;;;;;;24.51;nan;101110.41;5089323;28;20036;-67
2022/10/28 10:32:14;;;;;;;9.50;2.70;;;;;;;24.67;nan;101121.63;5085275;28;19924;-68
2022/10/28 10:34:44;;;;;;;7.53;2.33;;;;;;;24.62;nan;101116.91;5050227;28;20036;-68
2022/10/28 10:37:19;;;;;;;6.90;2.80;;;;;;;25.88;nan;101116.66;5068678;28;20113;-68
2022/10/28 10:39:44;;;;;;;6.28;2.28;;;;;;;27.34;nan;101120.69;5050762;28;20385;-68
2022/10/28 10:42:19;;;;;;;;;;;;;;;27.97;nan;101115.84;5068233;28;20029;-68
2022/10/28 10:44:45;;;;;;;7.43;2.88;;;;;;;27.31;nan;101111.13;5050527;28;20400;-68
2022/10/28 10:47:12;;;;;;;5.55;1.98;;;;;;;26.76;nan;101003.31;5067276;28;20537;-68
2022/10/28 10:49:37;;;;;;;4.68;2.00;;;;;;;27.05;nan;100986.91;5077878;28;20531;-68
2022/10/28 10:52:16;;;;;;;6.35;2.22;;;;;;;27.54;nan;101110.09;5089091;28;20040;-68
2022/10/28 10:54:55;;;;;;;5.68;2.30;;;;;;;26.97;nan;101102.16;5089140;28;20048;-68
2022/10/28 10:57:21;;;;;;;5.78;2.20;;;;;;;26.86;nan;101101.19;5089583;28;20036;-68
2022/10/28 10:59:50;;;;;;;6.47;2.20;;;;;;;27.69;nan;100960.03;5088953;28;20039;-68
2022/10/28 11:02:37;;;;;;;4.95;2.20;;;;;;;28.95;nan;101110.28;5070082;28;20040;-68
2022/10/28 11:05:05;;;;;;;;;;;;;;;29.42;nan;101095.94;5083441;28;20063;-68
2022/10/28 11:07:31;;;;;;;6.93;2.28;;;;;;;29.32;nan;101100.50;5107164;28;19949;-68
2022/10/28 11:09:57;;;;;;;5.05;2.33;;;;;;;28.99;nan;101097.81;5109160;28;20116;-68
2022/10/28 11:12:34;;;;;;;6.45;2.10;;;;;;;28.53;nan;101089.28;5107885;28;20082;-68
2022/10/28 11:15:00;;;;;;;3.47;1.50;;;;;;;28.52;nan;101084.91;5108033;28;20414;-68
2022/10/28 11:17:29;;;;;;;3.75;1.63;;;;;;;28.35;nan;101082.25;5101295;28;20386;-68
2022/10/28 11:19:57;;;;;;;4.50;1.63;;;;;;;28.09;nan;101072.19;5087602;28;20858;-68
2022/10/28 11:22:28;;;;;;;3.78;1.70;;;;;;;27.59;nan;101071.31;5098820;28;20581;-68
2022/10/28 11:25:34;;;;;;;4.40;1.80;;;;;;;27.32;nan;101073.94;5088263;28;20387;-68
2022/10/28 11:28:18;;;;;;;3.88;1.58;;;;;;;27.10;nan;101076.56;5087335;28;20390;-68
2022/10/28 11:31:11;;;;;;;4.72;1.80;;;;;;;26.94;nan;101059.22;5086905;28;20458;-68
2022/10/28 11:33:46;;;;;;;4.33;1.70;;;;;;;26.80;nan;101063.34;5087177;28;20398;-68
2022/10/28 11:36:43;;;;;;;3.65;1.60;;;;;;;26.62;nan;101065.22;5086613;28;20398;-68
2022/10/28 11:39:32;;;;;;;4.45;1.50;;;;;;;26.40;nan;101070.50;5087003;28;20405;-68
2022/10/28 11:42:21;;;;;;;5.15;1.73;;;;;;;26.06;nan;101070.44;5086938;28;20405;-68
2022/10/28 11:44:59;;;;;;;4.82;1.63;;;;;;;25.64;nan;101059.78;5088152;28;20516;-68
2022/10/28 11:47:55;;;;;;;5.67;1.90;;;;;;;25.69;nan;101060.97;5069275;28;20446;-68
2022/10/28 11:50:31;;;;;;;7.03;2.03;;;;;;;25.57;nan;101064.50;5083537;28;20386;-68
2022/10/28 11:53:11;;;;;;;4.90;2.00;;;;;;;25.47;nan;101050.75;5086343;28;20374;-68
2022/10/28 11:56:01;;;;;;;4.88;2.00;;;;;;;25.31;nan;101051.50;5086595;28;20447;-68
2022/10/28 11:58:40;;;;;;;5.38;2.03;;;;;;;25.13;nan;101047.84;5083984;28;20893;-68
2022/10/28 12:01:19;;;;;;;4.53;1.73;;;;;;;25.01;nan;101042.41;5077876;28;20394;-68
2022/10/28 12:03:57;;;;;;;4.78;1.73;;;;;;;24.86;nan;101042.06;5074179;28;20418;-68
2022/10/28 12:06:43;;;;;;;7.80;2.22;;;;;;;24.55;nan;101029.66;5068484;28;20051;-68